Flood From: 22-02-2018 16:00 Until: 23-02-2018 16:00 warning for: Flood Level: Yellow info button

Although rather usual in this region, locally or potentially dangerous phenomena are expected. (such as local winds, summer thunderstorms, rising streams or high waves) Be aware and pay attention to the latest weather updates, especially if you carry out activities exposed to weather or close to a stream or shoreline. 


Meteo18 Weather Cam more information Meteo18 Weather Cam


Thunder radar more information blitzortung!


Rain radar more information rain snow radar


Visit our other weather sites:

Template documentation
and downloads

And another site



Weather Underground History page Text

Daily Summary for April 13, 2017 Units:  English    Metric   Both
« Previous Day
Next Day »
Daily Weekly Monthly Yearly Custom
  High: Low: Average:
Temperature: TemperatureC °F 5.8 °F 11.7 °F
Dew Point: DewpointC °F 4.7 °F 6.8 °F
Humidity: Humidity % 57 % 73 %
Wind Speed: WindSpeedKMH mph 0.0 mph 3 mph
Wind Gust: WindSpeedGustKMH mph - -
Wind:- - SSW
Pressure: PressurehPa in 1017.5 in -
Precipitation: 0.0 in    
Historical Graphs
 
 
Tabular Data for April 13, 2017
Time Temperature Dew Point Pressure Wind Wind Speed Wind Gust Humidity Rainfall Rate (Hourly)
TemperatureC °F DewpointC °F PressurehPa in Calm     Humidity % HourlyPrecipMM in
00:02 11.9 °F 5.7 °F 1019.5 in WNW 1.6 mph 6.4 mph 66 % 0.0 in
00:12 12.0 °F 5.8 °F 1019.5 in WNW 1.6 mph 6.4 mph 66 % 0.0 in
00:17 12.2 °F 6.0 °F 1019.5 in WNW 1.6 mph 6.4 mph 66 % 0.0 in
00:22 12.2 °F 6.0 °F 1019.5 in WNW 4.8 mph 9.7 mph 66 % 0.0 in
00:27 12.3 °F 6.1 °F 1019.5 in WNW 4.8 mph 12.9 mph 66 % 0.0 in
00:32 12.3 °F 6.1 °F 1019.5 in WNW 6.4 mph 12.9 mph 66 % 0.0 in
00:37 12.2 °F 6.0 °F 1019.5 in NW 6.4 mph 12.9 mph 66 % 0.0 in
00:42 12.1 °F 6.2 °F 1019.5 in WNW 6.4 mph 12.9 mph 67 % 0.0 in
00:47 11.8 °F 5.9 °F 1019.5 in NW 3.2 mph 11.3 mph 67 % 0.0 in
00:52 11.8 °F 5.9 °F 1019.5 in WNW 4.8 mph 11.3 mph 67 % 0.0 in
00:57 11.7 °F 5.8 °F 1019.5 in NW 4.8 mph 9.7 mph 67 % 0.0 in
01:02 11.5 °F 5.8 °F 1019.9 in WNW 3.2 mph 9.7 mph 68 % 0.0 in
01:12 11.3 °F 5.6 °F 1019.9 in WNW 4.8 mph 11.3 mph 68 % 0.0 in
01:17 11.3 °F 5.6 °F 1019.9 in WNW 3.2 mph 11.3 mph 68 % 0.0 in
01:22 11.2 °F 5.7 °F 1019.9 in NW 4.8 mph 14.5 mph 69 % 0.0 in
01:32 11.1 °F 5.8 °F 1019.9 in NNW 4.8 mph 14.5 mph 70 % 0.0 in
01:37 10.9 °F 5.6 °F 1019.9 in NW 3.2 mph 12.9 mph 70 % 0.0 in
01:42 10.8 °F 5.5 °F 1019.5 in NW 1.6 mph 11.3 mph 70 % 0.0 in
01:47 10.7 °F 5.7 °F 1019.5 in NW 3.2 mph 11.3 mph 71 % 0.0 in
01:52 10.6 °F 5.6 °F 1019.5 in NW 1.6 mph 9.7 mph 71 % 0.0 in
01:57 10.4 °F 5.6 °F 1019.5 in NW 4.8 mph 8.0 mph 72 % 0.0 in
02:02 10.3 °F 5.7 °F 1019.5 in NNW 1.6 mph 9.7 mph 73 % 0.0 in
02:07 10.2 °F 5.6 °F 1019.5 in NW 1.6 mph 9.7 mph 73 % 0.0 in
02:12 10.1 °F 5.7 °F 1019.5 in WNW 3.2 mph 9.7 mph 74 % 0.0 in
02:17 9.9 °F 5.5 °F 1019.5 in NNE 3.2 mph 6.4 mph 74 % 0.0 in
02:22 9.8 °F 5.6 °F 1019.5 in Calm   4.8 mph 75 % 0.0 in
02:27 9.6 °F 5.4 °F 1019.5 in North 3.2 mph 3.2 mph 75 % 0.0 in
02:32 9.3 °F 5.5 °F 1019.5 in NNE 3.2 mph 6.4 mph 77 % 0.0 in
02:42 8.9 °F 5.5 °F 1019.5 in North 3.2 mph 8.0 mph 79 % 0.0 in
02:47 8.8 °F 5.5 °F 1019.5 in NNW 1.6 mph 8.0 mph 80 % 0.0 in
02:52 8.7 °F 5.6 °F 1019.5 in NNW 3.2 mph 8.0 mph 81 % 0.0 in
03:02 8.4 °F 5.5 °F 1019.5 in NNE 1.6 mph 6.4 mph 82 % 0.0 in
03:12 8.3 °F 5.6 °F 1019.5 in Calm   6.4 mph 83 % 0.0 in
03:17 8.3 °F 5.6 °F 1019.5 in Calm   4.8 mph 83 % 0.0 in
03:22 8.2 °F 5.5 °F 1019.5 in Calm   4.8 mph 83 % 0.0 in
03:27 8.0 °F 5.5 °F 1019.5 in North 1.6 mph 4.8 mph 84 % 0.0 in
03:32 7.9 °F 5.5 °F 1019.5 in NNW 1.6 mph 8.0 mph 85 % 0.0 in
03:37 7.9 °F 5.7 °F 1019.5 in North 1.6 mph 8.0 mph 86 % 0.0 in
03:42 7.8 °F 5.6 °F 1019.5 in NNE 3.2 mph 8.0 mph 86 % 0.0 in
03:47 7.6 °F 5.4 °F 1019.5 in NNW 3.2 mph 4.8 mph 86 % 0.0 in
03:52 7.5 °F 5.5 °F 1019.5 in North 3.2 mph 6.4 mph 87 % 0.0 in
03:57 7.4 °F 5.4 °F 1019.5 in NNE 1.6 mph 6.4 mph 87 % 0.0 in
04:02 7.3 °F 5.4 °F 1019.5 in Calm   6.4 mph 88 % 0.0 in
04:12 7.4 °F 5.7 °F 1019.5 in North 4.8 mph 8.0 mph 89 % 0.0 in
04:17 7.6 °F 5.7 °F 1019.5 in NNE 4.8 mph 9.7 mph 88 % 0.0 in
04:22 7.6 °F 5.7 °F 1019.5 in NNW 4.8 mph 9.7 mph 88 % 0.0 in
04:32 7.4 °F 5.5 °F 1019.9 in NNW 1.6 mph 9.7 mph 88 % 0.0 in
04:37 7.3 °F 5.4 °F 1019.9 in NW 1.6 mph 6.4 mph 88 % 0.0 in
04:42 7.3 °F 5.4 °F 1019.5 in WNW 3.2 mph 4.8 mph 88 % 0.0 in
04:47 7.2 °F 5.3 °F 1019.5 in NW 1.6 mph 6.4 mph 88 % 0.0 in
04:52 6.9 °F 4.9 °F 1019.5 in North 3.2 mph 6.4 mph 87 % 0.0 in
04:57 6.7 °F 4.9 °F 1019.5 in NW 3.2 mph 6.4 mph 88 % 0.0 in
05:02 6.7 °F 5.0 °F 1019.5 in NNW 3.2 mph 6.4 mph 89 % 0.0 in
05:07 6.6 °F 4.9 °F 1019.5 in NNW 1.6 mph 4.8 mph 89 % 0.0 in
05:17 6.6 °F 5.1 °F 1019.9 in NNW 1.6 mph 4.8 mph 90 % 0.0 in
05:22 6.5 °F 4.8 °F 1019.5 in WNW 3.2 mph 4.8 mph 89 % 0.0 in
05:32 6.4 °F 4.9 °F 1019.5 in NW 1.6 mph 4.8 mph 90 % 0.0 in
05:37 6.4 °F 4.9 °F 1019.5 in Calm   4.8 mph 90 % 0.0 in
05:42 6.4 °F 5.0 °F 1019.9 in NNW 1.6 mph 4.8 mph 91 % 0.0 in
05:47 6.4 °F 5.0 °F 1019.9 in Calm   3.2 mph 91 % 0.0 in
05:52 6.3 °F 4.9 °F 1019.9 in Calm   3.2 mph 91 % 0.0 in
06:02 6.2 °F 4.8 °F 1019.5 in Calm   3.2 mph 91 % 0.0 in
06:07 6.2 °F 4.8 °F 1019.5 in Calm   3.2 mph 91 % 0.0 in
06:12 6.1 °F 4.7 °F 1019.5 in Calm   1.6 mph 91 % 0.0 in
06:17 6.1 °F 4.7 °F 1019.9 in Calm   1.6 mph 91 % 0.0 in
06:22 6.1 °F 4.7 °F 1019.9 in NNW 1.6 mph 1.6 mph 91 % 0.0 in
06:27 6.1 °F 4.9 °F 1019.5 in NW 1.6 mph 1.6 mph 92 % 0.0 in
06:32 6.1 °F 4.9 °F 1019.9 in NW 3.2 mph 4.8 mph 92 % 0.0 in
06:37 6.1 °F 4.9 °F 1019.9 in NNW 1.6 mph 4.8 mph 92 % 0.0 in
06:42 6.2 °F 5.0 °F 1019.9 in NNW 1.6 mph 4.8 mph 92 % 0.0 in
06:52 6.1 °F 4.9 °F 1019.9 in NNW 1.6 mph 4.8 mph 92 % 0.0 in
06:57 5.9 °F 4.7 °F 1019.9 in Calm   4.8 mph 92 % 0.0 in
07:02 5.9 °F 4.7 °F 1019.9 in North 1.6 mph 3.2 mph 92 % 0.0 in
07:12 5.8 °F 4.8 °F 1019.9 in Calm   1.6 mph 93 % 0.0 in
07:17 5.8 °F 4.8 °F 1019.9 in Calm   1.6 mph 93 % 0.0 in
07:22 5.8 °F 4.8 °F 1019.9 in Calm   3.2 mph 93 % 0.0 in
07:32 5.9 °F 4.9 °F 1019.9 in Calm   3.2 mph 93 % 0.0 in
07:37 5.9 °F 4.9 °F 1019.9 in NW 1.6 mph 3.2 mph 93 % 0.0 in
07:42 5.9 °F 4.9 °F 1019.9 in NW 1.6 mph 4.8 mph 93 % 0.0 in
07:47 6.0 °F 5.0 °F 1019.9 in NW 1.6 mph 4.8 mph 93 % 0.0 in
07:52 6.1 °F 5.1 °F 1019.9 in NW 1.6 mph 4.8 mph 93 % 0.0 in
08:02 6.2 °F 5.2 °F 1020.2 in Calm   4.8 mph 93 % 0.0 in
08:07 6.4 °F 5.2 °F 1020.2 in Calm   4.8 mph 92 % 0.0 in
08:12 6.6 °F 5.4 °F 1020.2 in Calm   1.6 mph 92 % 0.0 in
08:17 6.7 °F 5.5 °F 1020.2 in Calm   1.6 mph 92 % 0.0 in
08:22 6.9 °F 5.7 °F 1020.5 in Calm   1.6 mph 92 % 0.0 in
08:27 7.1 °F 5.7 °F 1020.2 in WNW 1.6 mph 1.6 mph 91 % 0.0 in
08:32 7.2 °F 5.8 °F 1020.5 in Calm   3.2 mph 91 % 0.0 in
08:42 7.6 °F 6.1 °F 1020.2 in Calm   3.2 mph 90 % 0.0 in
08:47 7.8 °F 6.1 °F 1020.2 in Calm   3.2 mph 89 % 0.0 in
08:52 8.1 °F 6.4 °F 1020.2 in Calm   3.2 mph 89 % 0.0 in
09:02 8.7 °F 6.5 °F 1020.2 in Calm   1.6 mph 86 % 0.0 in
09:07 9.0 °F 6.8 °F 1020.2 in Calm     86 % 0.0 in
09:12 9.4 °F 7.0 °F 1020.2 in Calm     85 % 0.0 in
09:17 9.2 °F 6.5 °F 1020.2 in Calm     83 % 0.0 in
09:22 9.2 °F 6.5 °F 1020.2 in WNW 4.8 mph 6.4 mph 83 % 0.0 in
09:27 9.2 °F 6.6 °F 1020.2 in Calm   6.4 mph 84 % 0.0 in
09:32 9.6 °F 6.9 °F 1020.2 in NW 3.2 mph 6.4 mph 83 % 0.0 in
09:42 9.7 °F 6.6 °F 1020.2 in WNW 1.6 mph 6.4 mph 81 % 0.0 in
09:47 9.8 °F 6.5 °F 1020.2 in Calm   6.4 mph 80 % 0.0 in
09:52 9.8 °F 6.7 °F 1020.2 in NNW 3.2 mph 8.0 mph 81 % 0.0 in
09:57 9.9 °F 6.6 °F 1020.2 in Calm   9.7 mph 80 % 0.0 in
10:02 10.1 °F 6.6 °F 1020.2 in WNW 1.6 mph 12.9 mph 79 % 0.0 in
10:12 10.6 °F 7.1 °F 1020.2 in WNW 3.2 mph 12.9 mph 79 % 0.0 in
10:17 11.0 °F 7.1 °F 1020.2 in Calm   4.8 mph 77 % 0.0 in
10:22 11.5 °F 7.2 °F 1020.2 in ENE 1.6 mph 3.2 mph 75 % 0.0 in
10:27 11.4 °F 6.9 °F 1020.2 in NE 3.2 mph 3.2 mph 74 % 0.0 in
10:32 11.3 °F 7.0 °F 1020.2 in NNW 3.2 mph 3.2 mph 75 % 0.0 in
10:37 11.4 °F 7.1 °F 1020.2 in Calm   6.4 mph 75 % 0.0 in
10:47 11.8 °F 7.1 °F 1020.2 in North 3.2 mph 6.4 mph 73 % 0.0 in
10:52 11.8 °F 6.9 °F 1020.2 in West 3.2 mph 3.2 mph 72 % 0.0 in
10:57 11.6 °F 6.7 °F 1020.2 in NNW 8.0 mph 8.0 mph 72 % 0.0 in
11:02 11.7 °F 6.8 °F 1020.2 in Calm   6.4 mph 72 % 0.0 in
11:12 12.4 °F 7.3 °F 1020.2 in West 1.6 mph 11.3 mph 71 % 0.0 in
11:17 12.4 °F 6.9 °F 1020.2 in WNW 3.2 mph 9.7 mph 69 % 0.0 in
11:22 12.3 °F 7.0 °F 1020.2 in West 1.6 mph 9.7 mph 70 % 0.0 in
11:27 12.6 °F 7.3 °F 1020.2 in Calm   9.7 mph 70 % 0.0 in
11:32 13.1 °F 7.8 °F 1020.2 in North 1.6 mph 8.0 mph 70 % 0.0 in
11:37 13.2 °F 7.4 °F 1020.2 in Calm   6.4 mph 68 % 0.0 in
11:42 13.3 °F 7.3 °F 1020.2 in NE 6.4 mph 8.0 mph 67 % 0.0 in
11:47 13.0 °F 7.4 °F 1020.2 in ENE 4.8 mph 9.7 mph 69 % 0.0 in
11:52 12.9 °F 6.9 °F 1020.2 in Calm   9.7 mph 67 % 0.0 in
11:57 13.2 °F 7.4 °F 1020.2 in West 1.6 mph 8.0 mph 68 % 0.0 in
12:07 13.4 °F 7.2 °F 1020.2 in West 1.6 mph 8.0 mph 66 % 0.0 in
12:12 13.4 °F 7.2 °F 1020.2 in Calm   8.0 mph 66 % 0.0 in
12:17 13.7 °F 7.2 °F 1020.2 in Calm   8.0 mph 65 % 0.0 in
12:22 13.6 °F 7.1 °F 1020.2 in NNE 8.0 mph 8.0 mph 65 % 0.0 in
12:27 13.5 °F 7.3 °F 1020.2 in West 1.6 mph 11.3 mph 66 % 0.0 in
12:32 13.8 °F 7.3 °F 1020.2 in Calm   11.3 mph 65 % 0.0 in
12:37 14.1 °F 7.6 °F 1019.9 in WNW 9.7 mph 11.3 mph 65 % 0.0 in
12:42 14.0 °F 7.3 °F 1019.9 in WNW 3.2 mph 9.7 mph 64 % 0.0 in
12:52 14.2 °F 7.3 °F 1019.9 in NNE 3.2 mph 11.3 mph 63 % 0.0 in
12:57 14.5 °F 7.5 °F 1019.9 in WNW 3.2 mph 11.3 mph 63 % 0.0 in
13:02 14.6 °F 7.4 °F 1019.9 in NNW 4.8 mph 11.3 mph 62 % 0.0 in
13:07 14.5 °F 7.1 °F 1019.9 in NE 4.8 mph 11.3 mph 61 % 0.0 in
13:12 14.6 °F 7.6 °F 1019.9 in NNW 4.8 mph 11.3 mph 63 % 0.0 in
13:17 14.9 °F 7.9 °F 1019.9 in NNW 4.8 mph 8.0 mph 63 % 0.0 in
13:22 15.0 °F 7.8 °F 1019.9 in Calm   8.0 mph 62 % 0.0 in
13:32 14.8 °F 7.6 °F 1019.9 in NNW 8.0 mph 9.7 mph 62 % 0.0 in
13:37 15.1 °F 7.4 °F 1019.9 in NNE 1.6 mph 11.3 mph 60 % 0.0 in
13:42 15.3 °F 7.8 °F 1019.5 in Calm   11.3 mph 61 % 0.0 in
13:47 15.5 °F 8.2 °F 1019.5 in NW 3.2 mph 11.3 mph 62 % 0.0 in
13:52 15.6 °F 7.6 °F 1019.5 in WSW 1.6 mph 11.3 mph 59 % 0.0 in
13:57 15.7 °F 8.2 °F 1019.5 in Calm   11.3 mph 61 % 0.0 in
14:02 15.7 °F 7.7 °F 1019.5 in NNE 1.6 mph 9.7 mph 59 % 0.0 in
14:07 15.8 °F 8.0 °F 1019.5 in Calm   9.7 mph 60 % 0.0 in
14:12 15.9 °F 8.1 °F 1019.2 in Calm   12.9 mph 60 % 0.0 in
14:17 16.2 °F 8.4 °F 1019.5 in NE 3.2 mph 12.9 mph 60 % 0.0 in
14:22 16.0 °F 8.5 °F 1019.2 in NNE 11.3 mph 14.5 mph 61 % 0.0 in
14:32 16.1 °F 8.6 °F 1019.5 in WNW 6.4 mph 12.9 mph 61 % 0.0 in
14:37 16.8 °F 9.0 °F 1019.2 in Calm   12.9 mph 60 % 0.0 in
14:42 16.7 °F 8.4 °F 1019.2 in WNW 4.8 mph 12.9 mph 58 % 0.0 in
14:47 16.7 °F 8.6 °F 1019.2 in NNW 6.4 mph 12.9 mph 59 % 0.0 in
14:52 16.6 °F 8.6 °F 1019.2 in NW 4.8 mph 12.9 mph 59 % 0.0 in
14:57 16.5 °F 9.2 °F 1019.2 in NW 3.2 mph 12.9 mph 62 % 0.0 in
15:02 16.8 °F 9.5 °F 1019.2 in North 8.0 mph 12.9 mph 62 % 0.0 in
15:07 16.3 °F 8.3 °F 1018.8 in NNE 6.4 mph 11.3 mph 59 % 0.0 in
15:12 16.2 °F 8.7 °F 1018.8 in NNE 6.4 mph 12.9 mph 61 % 0.0 in
15:17 16.4 °F 8.6 °F 1018.8 in WNW 6.4 mph 16.1 mph 60 % 0.0 in
15:22 16.3 °F 8.3 °F 1018.8 in NNE 1.6 mph 16.1 mph 59 % 0.0 in
15:32 16.4 °F 8.9 °F 1018.8 in WNW 4.8 mph 16.1 mph 61 % 0.0 in
15:42 16.7 °F 8.9 °F 1018.5 in NW 6.4 mph 16.1 mph 60 % 0.0 in
15:47 17.0 °F 8.7 °F 1018.5 in WNW 3.2 mph 11.3 mph 58 % 0.0 in
15:52 17.1 °F 9.0 °F 1018.5 in NNW 3.2 mph 9.7 mph 59 % 0.0 in
15:57 17.4 °F 9.3 °F 1018.2 in NE 11.3 mph 11.3 mph 59 % 0.0 in
16:02 17.5 °F 9.4 °F 1018.2 in NW 9.7 mph 11.3 mph 59 % 0.0 in
16:12 17.0 °F 8.9 °F 1018.5 in Calm   16.1 mph 59 % 0.0 in
16:17 16.7 °F 8.4 °F 1018.2 in NE 6.4 mph 12.9 mph 58 % 0.0 in
16:22 16.4 °F 8.4 °F 1018.2 in Calm   12.9 mph 59 % 0.0 in
16:32 17.0 °F 8.9 °F 1018.2 in East 1.6 mph 11.3 mph 59 % 0.0 in
16:37 17.2 °F 9.1 °F 1017.8 in North 9.7 mph 12.9 mph 59 % 0.0 in
16:42 17.3 °F 9.2 °F 1017.8 in NNE 8.0 mph 12.9 mph 59 % 0.0 in
16:47 17.4 °F 9.1 °F 1017.8 in NNE 8.0 mph 12.9 mph 58 % 0.0 in
16:52 17.1 °F 8.8 °F 1017.8 in North 1.6 mph 12.9 mph 58 % 0.0 in
16:57 17.2 °F 9.1 °F 1017.8 in ENE 8.0 mph 12.9 mph 59 % 0.0 in
17:02 17.4 °F 8.8 °F 1017.8 in NE 1.6 mph 11.3 mph 57 % 0.0 in
17:07 17.3 °F 9.0 °F 1017.8 in NNW 6.4 mph 12.9 mph 58 % 0.0 in
17:12 17.2 °F 9.4 °F 1017.8 in NW 3.2 mph 14.5 mph 60 % 0.0 in
17:17 17.4 °F 9.1 °F 1017.8 in NNW 4.8 mph 14.5 mph 58 % 0.0 in
17:27 17.1 °F 8.5 °F 1017.8 in WNW 1.6 mph 9.7 mph 57 % 0.0 in
17:32 17.6 °F 9.5 °F 1017.8 in West 4.8 mph 8.0 mph 59 % 0.0 in
17:37 17.4 °F 8.8 °F 1017.5 in NE 4.8 mph 12.9 mph 57 % 0.0 in
17:42 17.1 °F 9.0 °F 1017.8 in NNW 3.2 mph 12.9 mph 59 % 0.0 in
17:47 16.9 °F 9.1 °F 1017.8 in NE 12.9 mph 14.5 mph 60 % 0.0 in
17:52 16.7 °F 9.1 °F 1017.5 in NNE 11.3 mph 17.7 mph 61 % 0.0 in
17:57 16.7 °F 9.4 °F 1017.5 in North 4.8 mph 17.7 mph 62 % 0.0 in
18:02 16.7 °F 8.9 °F 1017.5 in NNE 3.2 mph 16.1 mph 60 % 0.0 in
18:07 16.5 °F 9.0 °F 1017.5 in NNW 8.0 mph 20.9 mph 61 % 0.0 in
18:12 16.6 °F 8.6 °F 1017.5 in NNW 4.8 mph 20.9 mph 59 % 0.0 in
18:17 16.6 °F 8.8 °F 1017.5 in NNE 3.2 mph 20.9 mph 60 % 0.0 in
18:22 16.5 °F 8.7 °F 1017.5 in NNE 4.8 mph 14.5 mph 60 % 0.0 in
18:27 16.5 °F 9.0 °F 1017.5 in NW 8.0 mph 17.7 mph 61 % 0.0 in
18:32 16.3 °F 8.8 °F 1017.5 in NNE 3.2 mph 17.7 mph 61 % 0.0 in
18:37 16.2 °F 8.4 °F 1017.5 in NNE 6.4 mph 17.7 mph 60 % 0.0 in
18:47 16.1 °F 8.3 °F 1017.5 in NE 4.8 mph 12.9 mph 60 % 0.0 in
18:52 16.1 °F 8.1 °F 1017.5 in NNE 11.3 mph 12.9 mph 59 % 0.0 in
18:57 16.2 °F 8.7 °F 1017.5 in NNE 3.2 mph 14.5 mph 61 % 0.0 in
19:02 16.4 °F 8.9 °F 1017.5 in North 1.6 mph 14.5 mph 61 % 0.0 in
19:12 16.3 °F 8.5 °F 1017.5 in NNE 6.4 mph 11.3 mph 60 % 0.0 in
19:22 15.9 °F 8.4 °F 1017.5 in NE 11.3 mph 16.1 mph 61 % 0.0 in
19:37 15.7 °F 8.7 °F 1017.5 in North 6.4 mph 14.5 mph 63 % 0.0 in
19:42 15.5 °F 8.7 °F 1017.5 in NE 4.8 mph 14.5 mph 64 % 0.0 in
19:47 15.4 °F 8.4 °F 1017.5 in NE 6.4 mph 14.5 mph 63 % 0.0 in
19:52 15.3 °F 8.5 °F 1017.5 in North 6.4 mph 12.9 mph 64 % 0.0 in
19:57 15.1 °F 8.3 °F 1017.5 in NNE 8.0 mph 14.5 mph 64 % 0.0 in
20:02 14.9 °F 8.4 °F 1017.5 in NNE 6.4 mph 14.5 mph 65 % 0.0 in
20:12 14.4 °F 8.1 °F 1017.8 in NNE 9.7 mph 12.9 mph 66 % 0.0 in
20:17 14.2 °F 7.9 °F 1017.5 in NNE 11.3 mph 12.9 mph 66 % 0.0 in
20:22 13.9 °F 7.9 °F 1017.8 in North 4.8 mph 12.9 mph 67 % 0.0 in
20:27 13.6 °F 7.8 °F 1017.8 in NNE 6.4 mph 12.9 mph 68 % 0.0 in
20:32 13.4 °F 7.8 °F 1017.8 in NNE 6.4 mph 12.9 mph 69 % 0.0 in
20:42 13.1 °F 7.5 °F 1017.8 in NW 1.6 mph 17.7 mph 69 % 0.0 in
20:52 12.9 °F 7.6 °F 1017.8 in NNE 1.6 mph 12.9 mph 70 % 0.0 in
20:57 12.9 °F 7.6 °F 1018.2 in NE 3.2 mph 16.1 mph 70 % 0.0 in
21:02 12.7 °F 7.4 °F 1018.2 in NE 3.2 mph 16.1 mph 70 % 0.0 in
21:12 12.4 °F 7.3 °F 1018.2 in NNE 3.2 mph 9.7 mph 71 % 0.0 in
21:17 12.3 °F 7.4 °F 1018.2 in NE 3.2 mph 9.7 mph 72 % 0.0 in
21:22 12.3 °F 7.4 °F 1018.2 in NNE 6.4 mph 8.0 mph 72 % 0.0 in
21:27 12.1 °F 7.4 °F 1018.2 in North 3.2 mph 8.0 mph 73 % 0.0 in
21:37 11.7 °F 7.2 °F 1018.5 in NNE 4.8 mph 8.0 mph 74 % 0.0 in
21:42 11.7 °F 7.2 °F 1018.5 in Calm   6.4 mph 74 % 0.0 in
21:47 11.6 °F 7.1 °F 1018.5 in ENE 3.2 mph 6.4 mph 74 % 0.0 in
21:52 11.4 °F 7.1 °F 1018.5 in NNE 4.8 mph 6.4 mph 75 % 0.0 in
21:57 11.4 °F 7.1 °F 1018.5 in NNE 4.8 mph 6.4 mph 75 % 0.0 in
22:02 11.4 °F 7.1 °F 1018.5 in ENE 1.6 mph 6.4 mph 75 % 0.0 in
22:07 11.3 °F 7.0 °F 1018.5 in NNE 3.2 mph 8.0 mph 75 % 0.0 in
22:12 11.1 °F 6.8 °F 1018.5 in Calm   8.0 mph 75 % 0.0 in
22:17 10.9 °F 6.8 °F 1018.5 in Calm   8.0 mph 76 % 0.0 in
22:22 10.9 °F 6.8 °F 1018.5 in NNW 1.6 mph 6.4 mph 76 % 0.0 in
22:27 10.9 °F 6.8 °F 1018.5 in NNE 1.6 mph 4.8 mph 76 % 0.0 in
22:32 10.9 °F 6.6 °F 1018.5 in NNW 3.2 mph 4.8 mph 75 % 0.0 in
22:37 10.8 °F 6.5 °F 1018.5 in Calm   4.8 mph 75 % 0.0 in
22:47 10.6 °F 6.4 °F 1018.5 in Calm   4.8 mph 75 % 0.0 in
22:52 10.4 °F 6.4 °F 1018.5 in Calm   3.2 mph 76 % 0.0 in
22:57 10.2 °F 6.2 °F 1018.5 in Calm   3.2 mph 76 % 0.0 in
23:02 9.9 °F 6.1 °F 1018.5 in Calm   3.2 mph 77 % 0.0 in
23:07 9.9 °F 6.1 °F 1018.5 in Calm   1.6 mph 77 % 0.0 in
23:12 9.9 °F 6.1 °F 1018.5 in Calm   1.6 mph 77 % 0.0 in
23:17 9.8 °F 6.0 °F 1018.5 in Calm   1.6 mph 77 % 0.0 in
23:27 9.7 °F 6.0 °F 1018.5 in Calm   1.6 mph 78 % 0.0 in
23:37 9.7 °F 5.9 °F 1018.8 in Calm   1.6 mph 77 % 0.0 in
23:42 9.7 °F 5.9 °F 1018.8 in Calm   1.6 mph 77 % 0.0 in
23:47 9.4 °F 5.8 °F 1018.8 in Calm   1.6 mph 78 % 0.0 in
23:52 9.4 °F 5.8 °F 1018.8 in Calm   1.6 mph 78 % 0.0 in
23:57 9.3 °F 5.7 °F 1018.8 in Calm   1.6 mph 78 % 0.0 in
Meteo18
Compliments of Weather Underground - 4 mb

Script developed by  Jim McMurry - jmcmurry@mwt.net Adapted for the template by  Wim van der Kuil - Leuven-Template.eu

You find our weather info also at:

European Weather Network

Weather Underground

Equipment we use:

Weather-station
Davis Vue

Weather-program
Meteobridge

Weather-server
Raspberry PI 2 B+

Provider
1 and 1

Davis Vue

Meteobridge

Raspberry PI 2 B+

1 and 1